Baccara — V2QA — position and weather

sailwx.info

Track history (hours):
 
Tides and Currents Weather Stations Pressure Air Temp Water Temp Dewpoint Dewpoint Depression Visibility Wind Speed Wind Dir Waves Ship Positions

Baccara

Last reported at 2017-Nov-19 09:51 UTC. Time now 2017-Nov-20 02:16 UTC.
Position N 43°57' W 009°40'.

Length 100 m; draft 5.9 m.

Type: Cargo ship. MMSI: 305842000.

Date/timePositionNaut miles runAvg speedWind from/ knotsBaromVisibWave heightAir tempDewpointWater temp
2017-Nov-19 09:51N 43°57' W 009°40'191 9.0
2017-Nov-18 12:42N 46°46' W 007°31'5 9.6
2017-Nov-18 12:11N 46°50' W 007°28'7 9.9
2017-Nov-18 11:28N 46°57' W 007°23'5 9.9
2017-Nov-18 10:58N 47°01' W 007°20'5 9.5
2017-Nov-18 10:26N 47°06' W 007°16'4 9.1
2017-Nov-18 10:00N 47°09' W 007°14'5 9.3
2017-Nov-18 09:25N 47°14' W 007°10'8 9.4
2017-Nov-18 08:33N 47°21' W 007°04'1 9.4
2017-Nov-18 08:29N 47°22' W 007°04'510.2
2017-Nov-18 07:59N 47°26' W 007°00'510.3
2017-Nov-18 07:30N 47°31' W 006°57'510.5
2017-Nov-18 07:00N 47°35' W 006°53'510.8
2017-Nov-18 06:30N 47°40' W 006°50'810.5
2017-Nov-18 05:46N 47°47' W 006°44'7 9.8
2017-Nov-18 05:02N 47°53' W 006°39'2 9.8
2017-Nov-18 04:52N 47°54' W 006°38'5 9.5
2017-Nov-18 04:20N 47°59' W 006°34'4 9.2
2017-Nov-18 03:56N 48°02' W 006°32'5 8.9
2017-Nov-18 03:22N 48°07' W 006°28'3 8.5
2017-Nov-18 03:00N 48°09' W 006°26'6 8.4
2017-Nov-18 02:17N 48°15' W 006°22'3 8.4
2017-Nov-18 01:59N 48°17' W 006°20'4 8.5
2017-Nov-18 01:29N 48°21' W 006°17'5 8.7
2017-Nov-18 00:54N 48°25' W 006°14'4 8.8
2017-Nov-18 00:26N 48°29' W 006°11'4 9.2
2017-Nov-18 00:00N 48°32' W 006°08'9 9.7
2017-Nov-17 23:03N 48°41' W 006°01'1 9.6
2017-Nov-17 22:59N 48°41' W 006°01'710.5
2017-Nov-17 22:20N 48°47' W 005°56'510.8
2017-Nov-17 21:51N 48°51' W 005°51'3310.7
2017-Nov-17 18:46N 49°10' W 005°10'5 9.8
2017-Nov-17 18:14N 49°12' W 005°03'72 9.7
2017-Nov-17 10:47N 49°48' W 003°26'311.4
2017-Nov-17 10:30N 49°49' W 003°22'611.1
2017-Nov-17 10:00N 49°52' W 003°14'910.5
2017-Nov-17 09:08N 49°56' W 003°02'110.1
2017-Nov-17 09:00N 49°57' W 002°60'5 9.6
2017-Nov-17 08:30N 49°59' W 002°53'4 8.9
2017-Nov-17 08:00N 50°00' W 002°47'30 8.2
2017-Nov-17 04:21N 50°08' W 002°02'3 9.7
2017-Nov-17 04:00N 50°09' W 001°57'510.4
2017-Nov-17 03:30N 50°11' W 001°49'611.3
2017-Nov-17 03:00N 50°13' W 001°41'612.0
2017-Nov-17 02:30N 50°14' W 001°32'612.6
2017-Nov-17 02:00N 50°16' W 001°22'3912.4
2017-Nov-16 22:54N 50°27' W 000°24'410.7
2017-Nov-16 22:30N 50°29' W 000°18'510.1
2017-Nov-16 22:00N 50°30' W 000°11'5 9.7
2017-Nov-16 21:30N 50°31' W 000°03'5 9.1
2017-Nov-16 21:00N 50°33' E 000°04'4 8.6
2017-Nov-16 20:30N 50°34' E 000°10'4 7.9
2017-Nov-16 20:00N 50°35' E 000°16'4 7.6
2017-Nov-16 19:30N 50°36' E 000°22'4 7.4
2017-Nov-16 19:00N 50°37' E 000°28'4 7.8
2017-Nov-16 18:30N 50°38' E 000°33'4 8.6
2017-Nov-16 18:00N 50°41' E 000°39'5 9.3
2017-Nov-16 17:30N 50°43' E 000°45'5 9.9
2017-Nov-16 17:00N 50°46' E 000°51'510.2
2017-Nov-16 16:30N 50°49' E 000°58'510.4
2017-Nov-16 16:00N 50°52' E 001°04'510.3
2017-Nov-16 15:30N 50°55' E 001°11'510.0
2017-Nov-16 15:00N 50°59' E 001°17'5 9.6
2017-Nov-16 14:30N 51°02' E 001°23'4 8.7
2017-Nov-16 14:00N 51°04' E 001°28'4 7.8
2017-Nov-16 13:30N 51°07' E 001°33'3 6.7
2017-Nov-16 13:00N 51°09' E 001°37'3 6.4
2017-Nov-16 12:30N 51°11' E 001°41'3 6.3
2017-Nov-16 12:00N 51°13' E 001°45'3 6.6
2017-Nov-16 11:30N 51°16' E 001°47'3 6.4
2017-Nov-16 11:00N 51°18' E 001°51'4 7.1
2017-Nov-16 10:30N 51°21' E 001°55'4 7.7
2017-Nov-16 10:00N 51°24' E 001°59'3 6.5
2017-Nov-16 09:30N 51°24' E 002°04'4 8.6
2017-Nov-16 09:01N 51°22' E 002°10'5 9.4
2017-Nov-16 08:30N 51°21' E 002°17'5 9.5
2017-Nov-16 08:00N 51°22' E 002°25'510.2
2017-Nov-16 07:29N 51°23' E 002°33'510.1
2017-Nov-16 07:00N 51°22' E 002°40'4 7.6
2017-Nov-16 06:29N 51°22' E 002°47'5 9.9
2017-Nov-16 06:00N 51°22' E 002°54'510.0
2017-Nov-16 05:30N 51°22' E 003°02'510.4
2017-Nov-16 05:00N 51°23' E 003°11'510.4
2017-Nov-16 04:30N 51°24' E 003°19'611.3
2017-Nov-16 04:00N 51°25' E 003°28'5 9.6
2017-Nov-16 03:30N 51°25' E 003°35'5 9.9
2017-Nov-16 03:00N 51°23' E 003°43'611.3
2017-Nov-16 02:30N 51°21' E 003°51'510.5
2017-Nov-16 02:00N 51°24' E 003°57'3 6.3
2017-Nov-16 01:31N 51°25' E 004°02'4 7.2
2017-Nov-16 01:00N 51°22' E 004°06'4 7.6
2017-Nov-16 00:31N 51°24' E 004°11'3 6.9
2017-Nov-16 00:00N 51°21' E 004°15'2 3.1
2017-Nov-15 23:31N 51°21' E 004°17'0 0.2
2017-Nov-15 23:01N 51°21' E 004°17'0 0.8
2017-Nov-15 22:31N 51°21' E 004°18'1 1.0
2017-Nov-15 21:56N 51°22' E 004°17'0 0.0
2017-Nov-15 21:29N 51°22' E 004°17'0 0.0
2017-Nov-15 20:47N 51°22' E 004°17'0 0.0
2017-Nov-15 20:29N 51°22' E 004°17'0 0.0
2017-Nov-15 19:50N 51°22' E 004°17'0 0.0
2017-Nov-15 19:29N 51°22' E 004°17'0 0.0
2017-Nov-15 18:56N 51°22' E 004°17'0 0.0
2017-Nov-15 18:29N 51°22' E 004°17'0 0.0
2017-Nov-15 17:59N 51°22' E 004°17'0 0.0
2017-Nov-15 17:23N 51°22' E 004°17'0 0.0
2017-Nov-15 16:59N 51°22' E 004°17'0 0.0
2017-Nov-15 16:26N 51°22' E 004°17'0 0.0
2017-Nov-15 15:56N 51°22' E 004°17'0 0.0
2017-Nov-15 15:23N 51°22' E 004°17'0 0.0
2017-Nov-15 14:53N 51°22' E 004°17'0 0.0
2017-Nov-15 14:29N 51°22' E 004°17'0 0.0
2017-Nov-15 13:59N 51°22' E 004°17'0 0.0
2017-Nov-15 13:29N 51°22' E 004°17'0 0.0
2017-Nov-15 12:59N 51°22' E 004°17'0 0.0
2017-Nov-15 12:29N 51°22' E 004°17'0 0.0
2017-Nov-15 11:56N 51°22' E 004°17'0 0.0
2017-Nov-15 11:23N 51°22' E 004°17'0 0.0
2017-Nov-15 10:59N 51°22' E 004°17'0 0.0
2017-Nov-15 10:26N 51°22' E 004°17'0 0.0
2017-Nov-15 09:59N 51°22' E 004°17'0 0.0
2017-Nov-15 09:29N 51°22' E 004°17'0 0.0
2017-Nov-15 08:56N 51°22' E 004°17'0 0.0
2017-Nov-15 08:26N 51°22' E 004°17'0 0.0
2017-Nov-15 07:56N 51°22' E 004°17'0 0.0
2017-Nov-15 07:29N 51°22' E 004°17'0 0.0
2017-Nov-15 06:59N 51°22' E 004°17'0 0.0
2017-Nov-15 06:26N 51°22' E 004°17'0 0.0
2017-Nov-15 05:59N 51°22' E 004°17'0 0.0
2017-Nov-15 05:29N 51°22' E 004°17'0 0.0
2017-Nov-15 04:59N 51°22' E 004°17'0 0.0
2017-Nov-15 04:29N 51°22' E 004°17'0 0.0
2017-Nov-15 03:56N 51°22' E 004°17'0 0.0
2017-Nov-15 03:26N 51°22' E 004°17'0 0.0
2017-Nov-15 02:53N 51°22' E 004°17'0 0.0
2017-Nov-15 02:26N 51°22' E 004°17'0 0.0
2017-Nov-15 01:56N 51°22' E 004°17'0 0.0
2017-Nov-15 01:29N 51°22' E 004°17'0 0.0
2017-Nov-15 00:59N 51°22' E 004°17'0 0.0
2017-Nov-15 00:20N 51°22' E 004°17'0 0.0
2017-Nov-14 23:59N 51°22' E 004°17'0 0.0
2017-Nov-14 23:26N 51°22' E 004°17'0 0.0
2017-Nov-14 22:59N 51°22' E 004°17'0 0.0
2017-Nov-14 22:26N 51°22' E 004°17'0 0.0
2017-Nov-14 21:53N 51°22' E 004°17'0 0.0
2017-Nov-14 21:26N 51°22' E 004°17'0 0.0
2017-Nov-14 20:59N 51°22' E 004°17'0 0.0
2017-Nov-14 20:29N 51°22' E 004°17'0 0.0
2017-Nov-14 19:59N 51°22' E 004°17'0 0.0
2017-Nov-14 19:29N 51°22' E 004°17'0 0.0
2017-Nov-14 18:59N 51°22' E 004°17'0 0.0
2017-Nov-14 18:17N 51°22' E 004°17'0 0.0
2017-Nov-14 17:53N 51°22' E 004°17'0 0.0
2017-Nov-14 17:29N 51°22' E 004°17'0 0.0
2017-Nov-14 16:56N 51°22' E 004°17'0 0.0
2017-Nov-14 16:29N 51°22' E 004°17'0 0.0
2017-Nov-14 15:59N 51°22' E 004°17'0 0.0
2017-Nov-14 15:29N 51°22' E 004°17'0 0.0
2017-Nov-14 14:56N 51°22' E 004°17'0 0.0
2017-Nov-14 14:26N 51°22' E 004°17'0 0.1
2017-Nov-14 14:00N 51°22' E 004°17'1 1.8
2017-Nov-14 13:30N 51°21' E 004°17'0 0.0
2017-Nov-14 13:00N 51°21' E 004°17'1 1.4
2017-Nov-14 12:30N 51°21' E 004°16'3 6.0
2017-Nov-14 12:00N 51°23' E 004°13'3 5.7
2017-Nov-14 11:30N 51°22' E 004°08'4 7.0
2017-Nov-14 11:00N 51°23' E 004°03'4 7.2
2017-Nov-14 10:30N 51°26' E 004°01'3 5.5
2017-Nov-14 10:00N 51°24' E 003°58'3 6.7
2017-Nov-14 09:30N 51°21' E 003°54'4 7.5
2017-Nov-14 09:00N 51°21' E 003°48'510.1
2017-Nov-14 08:30N 51°24' E 003°42'5 9.7
2017-Nov-14 08:01N 51°25' E 003°34'4 7.0
2017-Nov-14 07:30N 51°25' E 003°29'4 8.8
2017-Nov-14 07:00N 51°24' E 003°22'5 9.3
2017-Nov-14 06:30N 51°23' E 003°14'5 9.4
2017-Nov-14 06:00N 51°22' E 003°07'5 9.7
2017-Nov-14 05:30N 51°22' E 002°59'5 9.7
2017-Nov-14 05:00N 51°21' E 002°52'5 9.5
2017-Nov-14 04:28N 51°22' E 002°44'4 8.7
2017-Nov-14 04:00N 51°21' E 002°37'2 2.2
2017-Nov-14 03:12N 51°20' E 002°35'0 0.0
2017-Nov-14 02:51N 51°20' E 002°35'0 0.1
2017-Nov-14 02:09N 51°20' E 002°35'0 0.1
2017-Nov-14 02:00N 51°20' E 002°35'0 0.0
2017-Nov-14 01:30N 51°20' E 002°35'0 0.3
2017-Nov-14 00:58N 51°20' E 002°35'4 8.5
2017-Nov-14 00:29N 51°21' E 002°29'510.9
2017-Nov-14 00:00N 51°19' E 002°21'5 9.5
2017-Nov-13 23:30N 51°16' E 002°15'5 9.6
2017-Nov-13 23:00N 51°14' E 002°09'5 9.6
2017-Nov-13 22:30N 51°11' E 002°02'5 9.7
2017-Nov-13 22:00N 51°09' E 001°55'195 9.2
2017-Nov-13 00:51N 49°50' W 002°45'3 8.5
2017-Nov-13 00:30N 49°50' W 002°49'8 8.3
2017-Nov-12 23:32N 49°49' W 003°02'3 8.0
2017-Nov-12 23:09N 49°49' W 003°06'1 7.9
2017-Nov-12 23:00N 49°49' W 003°08'4 7.4
2017-Nov-12 22:30N 49°49' W 003°14'4 7.5
2017-Nov-12 22:01N 49°49' W 003°20'4 7.5
2017-Nov-12 21:30N 49°50' W 003°25'4 7.3
2017-Nov-12 21:00N 49°50' W 003°31'4 7.5
2017-Nov-12 20:30N 49°50' W 003°37'4 7.6
2017-Nov-12 20:00N 49°50' W 003°43'18 8.0
2017-Nov-12 17:46N 49°51' W 004°10'5 8.1
2017-Nov-12 17:08N 49°51' W 004°18'1 8.2
2017-Nov-12 16:59N 49°52' W 004°20'4 8.2
2017-Nov-12 16:30N 49°52' W 004°26'4 8.5
2017-Nov-12 16:00N 49°52' W 004°33'4 8.5
2017-Nov-12 15:30N 49°52' W 004°40'4 8.5
2017-Nov-12 15:00N 49°52' W 004°46'5 8.7
2017-Nov-12 14:23N 49°52' W 004°54'5 9.2
2017-Nov-12 13:50N 49°53' W 005°02'4 9.7
2017-Nov-12 13:25N 49°53' W 005°09'41 7.0
2017-Nov-12 07:32N 50°18' W 005°60'310.0
2017-Nov-12 07:15N 50°21' W 005°60'2 9.6
2017-Nov-12 07:00N 50°24' W 005°60'10 9.9
2017-Nov-12 05:58N 50°34' W 005°60'510.0
2017-Nov-12 05:28N 50°39' W 005°60'510.0
2017-Nov-12 05:00N 50°43' W 005°60'183 8.6
2017-Nov-11 07:45N 53°33' W 004°11'411.6
2017-Nov-11 07:27N 53°34' W 004°05'511.4
2017-Nov-11 06:59N 53°34' W 003°56'611.4
2017-Nov-11 06:30N 53°34' W 003°47'611.1
2017-Nov-11 06:00N 53°34' W 003°37'510.7
2017-Nov-11 05:30N 53°33' W 003°28'510.5
2017-Nov-11 05:00N 53°32' W 003°20'3 6.1
2017-Nov-11 04:30N 53°31' W 003°15'510.6
2017-Nov-11 04:00N 53°31' W 003°06'510.8
2017-Nov-11 03:30N 53°26' W 003°01'5 9.4
2017-Nov-11 03:00N 53°22' W 002°59'0 0.4
2017-Nov-11 02:29N 53°21' W 002°59'0 0.0
2017-Nov-11 01:59N 53°21' W 002°59'0 0.0
2017-Nov-11 01:29N 53°21' W 002°59'0 0.0
2017-Nov-11 00:59N 53°21' W 002°59'0 0.0
2017-Nov-11 00:29N 53°21' W 002°59'0 0.0
2017-Nov-10 23:59N 53°21' W 002°59'0 0.0
2017-Nov-10 23:29N 53°21' W 002°59'0 0.0
2017-Nov-10 22:59N 53°21' W 002°59'0 0.0
2017-Nov-10 22:29N 53°21' W 002°59'0 0.0
2017-Nov-10 21:59N 53°21' W 002°59'0 0.0
2017-Nov-10 21:29N 53°21' W 002°59'0 0.0
2017-Nov-10 20:59N 53°21' W 002°59'0 0.0
2017-Nov-10 20:29N 53°21' W 002°59'0 0.0
2017-Nov-10 19:59N 53°21' W 002°59'0 0.0
2017-Nov-10 19:29N 53°21' W 002°59'0 0.0
2017-Nov-10 18:59N 53°21' W 002°59'0 0.0
2017-Nov-10 18:29N 53°21' W 002°59'0 0.0
2017-Nov-10 17:59N 53°21' W 002°59'0 0.0
2017-Nov-10 17:26N 53°21' W 002°59'0 0.0
2017-Nov-10 16:59N 53°21' W 002°59'0 0.0
2017-Nov-10 16:29N 53°21' W 002°59'0 0.0
2017-Nov-10 15:59N 53°21' W 002°59'0 0.0
2017-Nov-10 15:26N 53°21' W 002°59'0 0.0
2017-Nov-10 14:59N 53°21' W 002°59'0 0.0
2017-Nov-10 14:29N 53°21' W 002°59'0 0.0
2017-Nov-10 13:53N 53°21' W 002°59'0 0.0
2017-Nov-10 13:29N 53°21' W 002°59'0 0.0
2017-Nov-10 12:59N 53°21' W 002°59'0 0.0
2017-Nov-10 12:29N 53°21' W 002°59'0 0.0
2017-Nov-10 11:59N 53°21' W 002°59'0 0.0
2017-Nov-10 11:26N 53°21' W 002°59'0 0.0
2017-Nov-10 10:59N 53°21' W 002°59'0 0.0
2017-Nov-10 10:23N 53°21' W 002°59'0 0.0
2017-Nov-10 09:59N 53°21' W 002°59'0 0.0
2017-Nov-10 09:29N 53°21' W 002°59'0 0.0
2017-Nov-10 08:59N 53°21' W 002°59'0 0.0
2017-Nov-10 08:29N 53°21' W 002°59'0 0.0
2017-Nov-10 07:56N 53°21' W 002°59'0 0.0
2017-Nov-10 07:29N 53°21' W 002°59'0 0.0
2017-Nov-10 06:59N 53°21' W 002°59'0 0.0
2017-Nov-10 06:29N 53°21' W 002°59'0 0.0
2017-Nov-10 05:59N 53°21' W 002°59'0 0.0
2017-Nov-10 05:29N 53°21' W 002°59'0 0.0
2017-Nov-10 04:59N 53°21' W 002°59'0 0.0
2017-Nov-10 04:29N 53°21' W 002°59'0 0.0
2017-Nov-10 03:59N 53°21' W 002°59'0 0.0
2017-Nov-10 03:29N 53°21' W 002°59'0 0.0
2017-Nov-10 02:59N 53°21' W 002°59'0 0.0
2017-Nov-10 02:29N 53°21' W 002°59'0 0.0
2017-Nov-10 01:59N 53°21' W 002°59'0 0.0
2017-Nov-10 01:29N 53°21' W 002°59'0 0.0
2017-Nov-10 00:59N 53°21' W 002°59'0 0.0
2017-Nov-10 00:29N 53°21' W 002°59'0 0.0
2017-Nov-09 23:59N 53°21' W 002°59'0 0.0
2017-Nov-09 23:26N 53°21' W 002°59'0 0.0
2017-Nov-09 22:59N 53°21' W 002°59'0 0.0
2017-Nov-09 22:29N 53°21' W 002°59'0 0.0
2017-Nov-09 21:59N 53°21' W 002°59'0 0.0
2017-Nov-09 21:29N 53°21' W 002°59'0 0.0
2017-Nov-09 20:59N 53°21' W 002°59'0 0.0
2017-Nov-09 20:26N 53°21' W 002°59'0 0.0
2017-Nov-09 19:59N 53°21' W 002°59'0 0.0
2017-Nov-09 19:29N 53°21' W 002°59'0 0.0
2017-Nov-09 18:59N 53°21' W 002°59'0 0.0
2017-Nov-09 18:29N 53°21' W 002°59'0 0.0
2017-Nov-09 17:56N 53°21' W 002°59'0 0.0
2017-Nov-09 17:29N 53°21' W 002°59'0 0.0
2017-Nov-09 16:59N 53°21' W 002°59'0 0.0
2017-Nov-09 16:29N 53°21' W 002°59'0 0.0
2017-Nov-09 15:56N 53°21' W 002°59'0 0.0
2017-Nov-09 15:29N 53°21' W 002°59'0 0.0
2017-Nov-09 14:59N 53°21' W 002°59'0 0.0
2017-Nov-09 14:29N 53°21' W 002°59'0 0.0
2017-Nov-09 13:59N 53°21' W 002°59'0 0.0
2017-Nov-09 13:29N 53°21' W 002°59'0 0.0
2017-Nov-09 12:59N 53°21' W 002°59'0 0.0
2017-Nov-09 12:29N 53°21' W 002°59'0 0.0
2017-Nov-09 11:59N 53°21' W 002°59'0 0.0
2017-Nov-09 11:29N 53°21' W 002°59'0 0.0
2017-Nov-09 10:59N 53°21' W 002°59'0 0.0
2017-Nov-09 10:24N 53°21' W 002°59'0 0.0
2017-Nov-09 10:00N 53°21' W 002°59'  
Track history (hours):
 
Tides and Currents Weather Stations Pressure Air Temp Water Temp Dewpoint Dewpoint Depression Visibility Wind Speed Wind Dir Waves Ship Positions

Baccara

Last reported at 2017-Nov-19 09:51 UTC. Time now 2017-Nov-20 02:16 UTC.
Position N 43°57' W 009°40'.

Length 100 m; draft 5.9 m.

Type: Cargo ship. MMSI: 305842000.

Date/timePositionNaut miles runAvg speedWind from/ knotsBaromVisibWave heightAir tempDewpointWater temp
2017-Nov-19 09:51N 43°57' W 009°40'191 9.0
2017-Nov-18 12:42N 46°46' W 007°31'5 9.6
2017-Nov-18 12:11N 46°50' W 007°28'7 9.9
2017-Nov-18 11:28N 46°57' W 007°23'5 9.9
2017-Nov-18 10:58N 47°01' W 007°20'5 9.5
2017-Nov-18 10:26N 47°06' W 007°16'4 9.1
2017-Nov-18 10:00N 47°09' W 007°14'5 9.3
2017-Nov-18 09:25N 47°14' W 007°10'8 9.4
2017-Nov-18 08:33N 47°21' W 007°04'1 9.4
2017-Nov-18 08:29N 47°22' W 007°04'510.2
2017-Nov-18 07:59N 47°26' W 007°00'510.3
2017-Nov-18 07:30N 47°31' W 006°57'510.5
2017-Nov-18 07:00N 47°35' W 006°53'510.8
2017-Nov-18 06:30N 47°40' W 006°50'810.5
2017-Nov-18 05:46N 47°47' W 006°44'7 9.8
2017-Nov-18 05:02N 47°53' W 006°39'2 9.8
2017-Nov-18 04:52N 47°54' W 006°38'5 9.5
2017-Nov-18 04:20N 47°59' W 006°34'4 9.2
2017-Nov-18 03:56N 48°02' W 006°32'5 8.9
2017-Nov-18 03:22N 48°07' W 006°28'3 8.5
2017-Nov-18 03:00N 48°09' W 006°26'6 8.4
2017-Nov-18 02:17N 48°15' W 006°22'3 8.4
2017-Nov-18 01:59N 48°17' W 006°20'4 8.5
2017-Nov-18 01:29N 48°21' W 006°17'5 8.7
2017-Nov-18 00:54N 48°25' W 006°14'4 8.8
2017-Nov-18 00:26N 48°29' W 006°11'4 9.2
2017-Nov-18 00:00N 48°32' W 006°08'9 9.7
2017-Nov-17 23:03N 48°41' W 006°01'1 9.6
2017-Nov-17 22:59N 48°41' W 006°01'710.5
2017-Nov-17 22:20N 48°47' W 005°56'510.8
2017-Nov-17 21:51N 48°51' W 005°51'3310.7
2017-Nov-17 18:46N 49°10' W 005°10'5 9.8
2017-Nov-17 18:14N 49°12' W 005°03'72 9.7
2017-Nov-17 10:47N 49°48' W 003°26'311.4
2017-Nov-17 10:30N 49°49' W 003°22'611.1
2017-Nov-17 10:00N 49°52' W 003°14'910.5
2017-Nov-17 09:08N 49°56' W 003°02'110.1
2017-Nov-17 09:00N 49°57' W 002°60'5 9.6
2017-Nov-17 08:30N 49°59' W 002°53'4 8.9
2017-Nov-17 08:00N 50°00' W 002°47'30 8.2
2017-Nov-17 04:21N 50°08' W 002°02'3 9.7
2017-Nov-17 04:00N 50°09' W 001°57'510.4
2017-Nov-17 03:30N 50°11' W 001°49'611.3
2017-Nov-17 03:00N 50°13' W 001°41'612.0
2017-Nov-17 02:30N 50°14' W 001°32'612.6
2017-Nov-17 02:00N 50°16' W 001°22'3912.4
2017-Nov-16 22:54N 50°27' W 000°24'410.7
2017-Nov-16 22:30N 50°29' W 000°18'510.1
2017-Nov-16 22:00N 50°30' W 000°11'5 9.7
2017-Nov-16 21:30N 50°31' W 000°03'5 9.1
2017-Nov-16 21:00N 50°33' E 000°04'4 8.6
2017-Nov-16 20:30N 50°34' E 000°10'4 7.9
2017-Nov-16 20:00N 50°35' E 000°16'4 7.6
2017-Nov-16 19:30N 50°36' E 000°22'4 7.4
2017-Nov-16 19:00N 50°37' E 000°28'4 7.8
2017-Nov-16 18:30N 50°38' E 000°33'4 8.6
2017-Nov-16 18:00N 50°41' E 000°39'5 9.3
2017-Nov-16 17:30N 50°43' E 000°45'5 9.9
2017-Nov-16 17:00N 50°46' E 000°51'510.2
2017-Nov-16 16:30N 50°49' E 000°58'510.4
2017-Nov-16 16:00N 50°52' E 001°04'510.3
2017-Nov-16 15:30N 50°55' E 001°11'510.0
2017-Nov-16 15:00N 50°59' E 001°17'5 9.6
2017-Nov-16 14:30N 51°02' E 001°23'4 8.7
2017-Nov-16 14:00N 51°04' E 001°28'4 7.8
2017-Nov-16 13:30N 51°07' E 001°33'3 6.7
2017-Nov-16 13:00N 51°09' E 001°37'3 6.4
2017-Nov-16 12:30N 51°11' E 001°41'3 6.3
2017-Nov-16 12:00N 51°13' E 001°45'3 6.6
2017-Nov-16 11:30N 51°16' E 001°47'3 6.4
2017-Nov-16 11:00N 51°18' E 001°51'4 7.1
2017-Nov-16 10:30N 51°21' E 001°55'4 7.7
2017-Nov-16 10:00N 51°24' E 001°59'3 6.5
2017-Nov-16 09:30N 51°24' E 002°04'4 8.6
2017-Nov-16 09:01N 51°22' E 002°10'5 9.4
2017-Nov-16 08:30N 51°21' E 002°17'5 9.5
2017-Nov-16 08:00N 51°22' E 002°25'510.2
2017-Nov-16 07:29N 51°23' E 002°33'510.1
2017-Nov-16 07:00N 51°22' E 002°40'4 7.6
2017-Nov-16 06:29N 51°22' E 002°47'5 9.9
2017-Nov-16 06:00N 51°22' E 002°54'510.0
2017-Nov-16 05:30N 51°22' E 003°02'510.4
2017-Nov-16 05:00N 51°23' E 003°11'510.4
2017-Nov-16 04:30N 51°24' E 003°19'611.3
2017-Nov-16 04:00N 51°25' E 003°28'5 9.6
2017-Nov-16 03:30N 51°25' E 003°35'5 9.9
2017-Nov-16 03:00N 51°23' E 003°43'611.3
2017-Nov-16 02:30N 51°21' E 003°51'510.5
2017-Nov-16 02:00N 51°24' E 003°57'3 6.3
2017-Nov-16 01:31N 51°25' E 004°02'4 7.2
2017-Nov-16 01:00N 51°22' E 004°06'4 7.6
2017-Nov-16 00:31N 51°24' E 004°11'3 6.9
2017-Nov-16 00:00N 51°21' E 004°15'2 3.1
2017-Nov-15 23:31N 51°21' E 004°17'0 0.2
2017-Nov-15 23:01N 51°21' E 004°17'0 0.8
2017-Nov-15 22:31N 51°21' E 004°18'1 1.0
2017-Nov-15 21:56N 51°22' E 004°17'0 0.0
2017-Nov-15 21:29N 51°22' E 004°17'0 0.0
2017-Nov-15 20:47N 51°22' E 004°17'0 0.0
2017-Nov-15 20:29N 51°22' E 004°17'0 0.0
2017-Nov-15 19:50N 51°22' E 004°17'0 0.0
2017-Nov-15 19:29N 51°22' E 004°17'0 0.0
2017-Nov-15 18:56N 51°22' E 004°17'0 0.0
2017-Nov-15 18:29N 51°22' E 004°17'0 0.0
2017-Nov-15 17:59N 51°22' E 004°17'0 0.0
2017-Nov-15 17:23N 51°22' E 004°17'0 0.0
2017-Nov-15 16:59N 51°22' E 004°17'0 0.0
2017-Nov-15 16:26N 51°22' E 004°17'0 0.0
2017-Nov-15 15:56N 51°22' E 004°17'0 0.0
2017-Nov-15 15:23N 51°22' E 004°17'0 0.0
2017-Nov-15 14:53N 51°22' E 004°17'0 0.0
2017-Nov-15 14:29N 51°22' E 004°17'0 0.0
2017-Nov-15 13:59N 51°22' E 004°17'0 0.0
2017-Nov-15 13:29N 51°22' E 004°17'0 0.0
2017-Nov-15 12:59N 51°22' E 004°17'0 0.0
2017-Nov-15 12:29N 51°22' E 004°17'0 0.0
2017-Nov-15 11:56N 51°22' E 004°17'0 0.0
2017-Nov-15 11:23N 51°22' E 004°17'0 0.0
2017-Nov-15 10:59N 51°22' E 004°17'0 0.0
2017-Nov-15 10:26N 51°22' E 004°17'0 0.0
2017-Nov-15 09:59N 51°22' E 004°17'0 0.0
2017-Nov-15 09:29N 51°22' E 004°17'0 0.0
2017-Nov-15 08:56N 51°22' E 004°17'0 0.0
2017-Nov-15 08:26N 51°22' E 004°17'0 0.0
2017-Nov-15 07:56N 51°22' E 004°17'0 0.0
2017-Nov-15 07:29N 51°22' E 004°17'0 0.0
2017-Nov-15 06:59N 51°22' E 004°17'0 0.0
2017-Nov-15 06:26N 51°22' E 004°17'0 0.0
2017-Nov-15 05:59N 51°22' E 004°17'0 0.0
2017-Nov-15 05:29N 51°22' E 004°17'0 0.0
2017-Nov-15 04:59N 51°22' E 004°17'0 0.0
2017-Nov-15 04:29N 51°22' E 004°17'0 0.0
2017-Nov-15 03:56N 51°22' E 004°17'0 0.0
2017-Nov-15 03:26N 51°22' E 004°17'0 0.0
2017-Nov-15 02:53N 51°22' E 004°17'0 0.0
2017-Nov-15 02:26N 51°22' E 004°17'0 0.0
2017-Nov-15 01:56N 51°22' E 004°17'0 0.0
2017-Nov-15 01:29N 51°22' E 004°17'0 0.0
2017-Nov-15 00:59N 51°22' E 004°17'0 0.0
2017-Nov-15 00:20N 51°22' E 004°17'0 0.0
2017-Nov-14 23:59N 51°22' E 004°17'0 0.0
2017-Nov-14 23:26N 51°22' E 004°17'0 0.0
2017-Nov-14 22:59N 51°22' E 004°17'0 0.0
2017-Nov-14 22:26N 51°22' E 004°17'0 0.0
2017-Nov-14 21:53N 51°22' E 004°17'0 0.0
2017-Nov-14 21:26N 51°22' E 004°17'0 0.0
2017-Nov-14 20:59N 51°22' E 004°17'0 0.0
2017-Nov-14 20:29N 51°22' E 004°17'0 0.0
2017-Nov-14 19:59N 51°22' E 004°17'0 0.0
2017-Nov-14 19:29N 51°22' E 004°17'0 0.0
2017-Nov-14 18:59N 51°22' E 004°17'0 0.0
2017-Nov-14 18:17N 51°22' E 004°17'0 0.0
2017-Nov-14 17:53N 51°22' E 004°17'0 0.0
2017-Nov-14 17:29N 51°22' E 004°17'0 0.0
2017-Nov-14 16:56N 51°22' E 004°17'0 0.0
2017-Nov-14 16:29N 51°22' E 004°17'0 0.0
2017-Nov-14 15:59N 51°22' E 004°17'0 0.0
2017-Nov-14 15:29N 51°22' E 004°17'0 0.0
2017-Nov-14 14:56N 51°22' E 004°17'0 0.0
2017-Nov-14 14:26N 51°22' E 004°17'0 0.1
2017-Nov-14 14:00N 51°22' E 004°17'1 1.8
2017-Nov-14 13:30N 51°21' E 004°17'0 0.0
2017-Nov-14 13:00N 51°21' E 004°17'1 1.4
2017-Nov-14 12:30N 51°21' E 004°16'3 6.0
2017-Nov-14 12:00N 51°23' E 004°13'3 5.7
2017-Nov-14 11:30N 51°22' E 004°08'4 7.0
2017-Nov-14 11:00N 51°23' E 004°03'4 7.2
2017-Nov-14 10:30N 51°26' E 004°01'3 5.5
2017-Nov-14 10:00N 51°24' E 003°58'3 6.7
2017-Nov-14 09:30N 51°21' E 003°54'4 7.5
2017-Nov-14 09:00N 51°21' E 003°48'510.1
2017-Nov-14 08:30N 51°24' E 003°42'5 9.7
2017-Nov-14 08:01N 51°25' E 003°34'4 7.0
2017-Nov-14 07:30N 51°25' E 003°29'4 8.8
2017-Nov-14 07:00N 51°24' E 003°22'5 9.3
2017-Nov-14 06:30N 51°23' E 003°14'5 9.4
2017-Nov-14 06:00N 51°22' E 003°07'5 9.7
2017-Nov-14 05:30N 51°22' E 002°59'5 9.7
2017-Nov-14 05:00N 51°21' E 002°52'5 9.5
2017-Nov-14 04:28N 51°22' E 002°44'4 8.7
2017-Nov-14 04:00N 51°21' E 002°37'2 2.2
2017-Nov-14 03:12N 51°20' E 002°35'0 0.0
2017-Nov-14 02:51N 51°20' E 002°35'0 0.1
2017-Nov-14 02:09N 51°20' E 002°35'0 0.1
2017-Nov-14 02:00N 51°20' E 002°35'0 0.0
2017-Nov-14 01:30N 51°20' E 002°35'0 0.3
2017-Nov-14 00:58N 51°20' E 002°35'4 8.5
2017-Nov-14 00:29N 51°21' E 002°29'510.9
2017-Nov-14 00:00N 51°19' E 002°21'5 9.5
2017-Nov-13 23:30N 51°16' E 002°15'5 9.6
2017-Nov-13 23:00N 51°14' E 002°09'5 9.6
2017-Nov-13 22:30N 51°11' E 002°02'5 9.7
2017-Nov-13 22:00N 51°09' E 001°55'195 9.2
2017-Nov-13 00:51N 49°50' W 002°45'3 8.5
2017-Nov-13 00:30N 49°50' W 002°49'8 8.3
2017-Nov-12 23:32N 49°49' W 003°02'3 8.0
2017-Nov-12 23:09N 49°49' W 003°06'1 7.9
2017-Nov-12 23:00N 49°49' W 003°08'4 7.4
2017-Nov-12 22:30N 49°49' W 003°14'4 7.5
2017-Nov-12 22:01N 49°49' W 003°20'4 7.5
2017-Nov-12 21:30N 49°50' W 003°25'4 7.3
2017-Nov-12 21:00N 49°50' W 003°31'4 7.5
2017-Nov-12 20:30N 49°50' W 003°37'4 7.6
2017-Nov-12 20:00N 49°50' W 003°43'18 8.0
2017-Nov-12 17:46N 49°51' W 004°10'5 8.1
2017-Nov-12 17:08N 49°51' W 004°18'1 8.2
2017-Nov-12 16:59N 49°52' W 004°20'4 8.2
2017-Nov-12 16:30N 49°52' W 004°26'4 8.5
2017-Nov-12 16:00N 49°52' W 004°33'4 8.5
2017-Nov-12 15:30N 49°52' W 004°40'4 8.5
2017-Nov-12 15:00N 49°52' W 004°46'5 8.7
2017-Nov-12 14:23N 49°52' W 004°54'5 9.2
2017-Nov-12 13:50N 49°53' W 005°02'4 9.7
2017-Nov-12 13:25N 49°53' W 005°09'41 7.0
2017-Nov-12 07:32N 50°18' W 005°60'310.0
2017-Nov-12 07:15N 50°21' W 005°60'2 9.6
2017-Nov-12 07:00N 50°24' W 005°60'10 9.9
2017-Nov-12 05:58N 50°34' W 005°60'510.0
2017-Nov-12 05:28N 50°39' W 005°60'510.0
2017-Nov-12 05:00N 50°43' W 005°60'183 8.6
2017-Nov-11 07:45N 53°33' W 004°11'411.6
2017-Nov-11 07:27N 53°34' W 004°05'511.4
2017-Nov-11 06:59N 53°34' W 003°56'611.4
2017-Nov-11 06:30N 53°34' W 003°47'611.1
2017-Nov-11 06:00N 53°34' W 003°37'510.7
2017-Nov-11 05:30N 53°33' W 003°28'510.5
2017-Nov-11 05:00N 53°32' W 003°20'3 6.1
2017-Nov-11 04:30N 53°31' W 003°15'510.6
2017-Nov-11 04:00N 53°31' W 003°06'510.8
2017-Nov-11 03:30N 53°26' W 003°01'5 9.4
2017-Nov-11 03:00N 53°22' W 002°59'0 0.4
2017-Nov-11 02:29N 53°21' W 002°59'0 0.0
2017-Nov-11 01:59N 53°21' W 002°59'0 0.0
2017-Nov-11 01:29N 53°21' W 002°59'0 0.0
2017-Nov-11 00:59N 53°21' W 002°59'0 0.0
2017-Nov-11 00:29N 53°21' W 002°59'0 0.0
2017-Nov-10 23:59N 53°21' W 002°59'0 0.0
2017-Nov-10 23:29N 53°21' W 002°59'0 0.0
2017-Nov-10 22:59N 53°21' W 002°59'0 0.0
2017-Nov-10 22:29N 53°21' W 002°59'0 0.0
2017-Nov-10 21:59N 53°21' W 002°59'0 0.0
2017-Nov-10 21:29N 53°21' W 002°59'0 0.0
2017-Nov-10 20:59N 53°21' W 002°59'0 0.0
2017-Nov-10 20:29N 53°21' W 002°59'0 0.0
2017-Nov-10 19:59N 53°21' W 002°59'0 0.0
2017-Nov-10 19:29N 53°21' W 002°59'0 0.0
2017-Nov-10 18:59N 53°21' W 002°59'0 0.0
2017-Nov-10 18:29N 53°21' W 002°59'0 0.0
2017-Nov-10 17:59N 53°21' W 002°59'0 0.0
2017-Nov-10 17:26N 53°21' W 002°59'0 0.0
2017-Nov-10 16:59N 53°21' W 002°59'0 0.0
2017-Nov-10 16:29N 53°21' W 002°59'0 0.0
2017-Nov-10 15:59N 53°21' W 002°59'0 0.0
2017-Nov-10 15:26N 53°21' W 002°59'0 0.0
2017-Nov-10 14:59N 53°21' W 002°59'0 0.0
2017-Nov-10 14:29N 53°21' W 002°59'0 0.0
2017-Nov-10 13:53N 53°21' W 002°59'0 0.0
2017-Nov-10 13:29N 53°21' W 002°59'0 0.0
2017-Nov-10 12:59N 53°21' W 002°59'0 0.0
2017-Nov-10 12:29N 53°21' W 002°59'0 0.0
2017-Nov-10 11:59N 53°21' W 002°59'0 0.0
2017-Nov-10 11:26N 53°21' W 002°59'0 0.0
2017-Nov-10 10:59N 53°21' W 002°59'0 0.0
2017-Nov-10 10:23N 53°21' W 002°59'0 0.0
2017-Nov-10 09:59N 53°21' W 002°59'0 0.0
2017-Nov-10 09:29N 53°21' W 002°59'0 0.0
2017-Nov-10 08:59N 53°21' W 002°59'0 0.0
2017-Nov-10 08:29N 53°21' W 002°59'0 0.0
2017-Nov-10 07:56N 53°21' W 002°59'0 0.0
2017-Nov-10 07:29N 53°21' W 002°59'0 0.0
2017-Nov-10 06:59N 53°21' W 002°59'0 0.0
2017-Nov-10 06:29N 53°21' W 002°59'0 0.0
2017-Nov-10 05:59N 53°21' W 002°59'0 0.0
2017-Nov-10 05:29N 53°21' W 002°59'0 0.0
2017-Nov-10 04:59N 53°21' W 002°59'0 0.0
2017-Nov-10 04:29N 53°21' W 002°59'0 0.0
2017-Nov-10 03:59N 53°21' W 002°59'0 0.0
2017-Nov-10 03:29N 53°21' W 002°59'0 0.0
2017-Nov-10 02:59N 53°21' W 002°59'0 0.0
2017-Nov-10 02:29N 53°21' W 002°59'0 0.0
2017-Nov-10 01:59N 53°21' W 002°59'0 0.0
2017-Nov-10 01:29N 53°21' W 002°59'0 0.0
2017-Nov-10 00:59N 53°21' W 002°59'0 0.0
2017-Nov-10 00:29N 53°21' W 002°59'0 0.0
2017-Nov-09 23:59N 53°21' W 002°59'0 0.0
2017-Nov-09 23:26N 53°21' W 002°59'0 0.0
2017-Nov-09 22:59N 53°21' W 002°59'0 0.0
2017-Nov-09 22:29N 53°21' W 002°59'0 0.0
2017-Nov-09 21:59N 53°21' W 002°59'0 0.0
2017-Nov-09 21:29N 53°21' W 002°59'0 0.0
2017-Nov-09 20:59N 53°21' W 002°59'0 0.0
2017-Nov-09 20:26N 53°21' W 002°59'0 0.0
2017-Nov-09 19:59N 53°21' W 002°59'0 0.0
2017-Nov-09 19:29N 53°21' W 002°59'0 0.0
2017-Nov-09 18:59N 53°21' W 002°59'0 0.0
2017-Nov-09 18:29N 53°21' W 002°59'0 0.0
2017-Nov-09 17:56N 53°21' W 002°59'0 0.0
2017-Nov-09 17:29N 53°21' W 002°59'0 0.0
2017-Nov-09 16:59N 53°21' W 002°59'0 0.0
2017-Nov-09 16:29N 53°21' W 002°59'0 0.0
2017-Nov-09 15:56N 53°21' W 002°59'0 0.0
2017-Nov-09 15:29N 53°21' W 002°59'0 0.0
2017-Nov-09 14:59N 53°21' W 002°59'0 0.0
2017-Nov-09 14:29N 53°21' W 002°59'0 0.0
2017-Nov-09 13:59N 53°21' W 002°59'0 0.0
2017-Nov-09 13:29N 53°21' W 002°59'0 0.0
2017-Nov-09 12:59N 53°21' W 002°59'0 0.0
2017-Nov-09 12:29N 53°21' W 002°59'0 0.0
2017-Nov-09 11:59N 53°21' W 002°59'0 0.0
2017-Nov-09 11:29N 53°21' W 002°59'0 0.0
2017-Nov-09 10:59N 53°21' W 002°59'0 0.0
2017-Nov-09 10:24N 53°21' W 002°59'0 0.0
2017-Nov-09 10:00N 53°21' W 002°59'  

Dump ship's entire track history